sensor_id;sensor_type;location;lat;lon;timestamp;P1;durP1;ratioP1;P2;durP2;ratioP2
47365;SDS011;33105;47.964;7.982;2023-07-02T00:00:07;4.88;;;2.30;;
47365;SDS011;33105;47.964;7.982;2023-07-02T00:03:12;5.10;;;2.20;;
47365;SDS011;33105;47.964;7.982;2023-07-02T00:06:13;6.28;;;2.28;;
47365;SDS011;33105;47.964;7.982;2023-07-02T00:09:15;2.80;;;2.08;;
47365;SDS011;33105;47.964;7.982;2023-07-02T00:12:16;3.15;;;2.30;;
47365;SDS011;33105;47.964;7.982;2023-07-02T00:15:18;3.53;;;2.20;;
47365;SDS011;33105;47.964;7.982;2023-07-02T00:18:19;2.85;;;2.42;;
47365;SDS011;33105;47.964;7.982;2023-07-02T00:21:20;4.93;;;2.30;;
47365;SDS011;33105;47.964;7.982;2023-07-02T00:24:21;3.13;;;2.15;;
47365;SDS011;33105;47.964;7.982;2023-07-02T00:27:23;2.30;;;2.10;;
47365;SDS011;33105;47.964;7.982;2023-07-02T00:30:24;3.33;;;2.55;;
47365;SDS011;33105;47.964;7.982;2023-07-02T00:33:26;4.70;;;2.33;;
47365;SDS011;33105;47.964;7.982;2023-07-02T00:36:28;2.85;;;2.22;;
47365;SDS011;33105;47.964;7.982;2023-07-02T00:39:30;4.43;;;2.50;;
47365;SDS011;33105;47.964;7.982;2023-07-02T00:42:31;2.72;;;2.50;;
47365;SDS011;33105;47.964;7.982;2023-07-02T00:45:33;4.90;;;2.42;;
47365;SDS011;33105;47.964;7.982;2023-07-02T00:48:34;4.22;;;2.40;;
47365;SDS011;33105;47.964;7.982;2023-07-02T00:51:37;4.32;;;2.35;;
47365;SDS011;33105;47.964;7.982;2023-07-02T00:54:38;2.30;;;2.10;;
47365;SDS011;33105;47.964;7.982;2023-07-02T00:57:41;2.33;;;2.13;;
47365;SDS011;33105;47.964;7.982;2023-07-02T01:00:47;3.08;;;2.47;;
47365;SDS011;33105;47.964;7.982;2023-07-02T01:03:52;5.78;;;2.17;;
47365;SDS011;33105;47.964;7.982;2023-07-02T01:06:59;7.40;;;2.45;;
47365;SDS011;33105;47.964;7.982;2023-07-02T01:10:01;5.75;;;2.67;;
47365;SDS011;33105;47.964;7.982;2023-07-02T01:13:05;4.10;;;2.25;;
47365;SDS011;33105;47.964;7.982;2023-07-02T01:16:11;3.75;;;1.85;;
47365;SDS011;33105;47.964;7.982;2023-07-02T01:19:16;2.63;;;2.00;;
47365;SDS011;33105;47.964;7.982;2023-07-02T01:22:25;2.10;;;1.90;;
47365;SDS011;33105;47.964;7.982;2023-07-02T01:25:29;7.82;;;2.08;;
47365;SDS011;33105;47.964;7.982;2023-07-02T01:28:35;2.80;;;2.15;;
47365;SDS011;33105;47.964;7.982;2023-07-02T01:31:37;2.85;;;2.55;;
47365;SDS011;33105;47.964;7.982;2023-07-02T01:34:39;3.15;;;2.63;;
47365;SDS011;33105;47.964;7.982;2023-07-02T01:37:43;8.73;;;3.00;;
47365;SDS011;33105;47.964;7.982;2023-07-02T01:40:45;7.88;;;3.22;;
47365;SDS011;33105;47.964;7.982;2023-07-02T01:43:47;7.47;;;2.60;;
47365;SDS011;33105;47.964;7.982;2023-07-02T01:46:48;3.53;;;2.70;;
47365;SDS011;33105;47.964;7.982;2023-07-02T01:49:49;7.95;;;2.83;;
47365;SDS011;33105;47.964;7.982;2023-07-02T01:52:51;7.22;;;2.85;;
47365;SDS011;33105;47.964;7.982;2023-07-02T01:55:52;3.05;;;2.45;;
47365;SDS011;33105;47.964;7.982;2023-07-02T01:58:54;3.53;;;2.50;;
47365;SDS011;33105;47.964;7.982;2023-07-02T02:01:55;6.57;;;3.17;;
47365;SDS011;33105;47.964;7.982;2023-07-02T02:04:57;4.78;;;2.80;;
47365;SDS011;33105;47.964;7.982;2023-07-02T02:07:58;3.25;;;2.95;;
47365;SDS011;33105;47.964;7.982;2023-07-02T02:10:59;4.25;;;3.00;;
47365;SDS011;33105;47.964;7.982;2023-07-02T02:14:01;7.75;;;2.88;;
47365;SDS011;33105;47.964;7.982;2023-07-02T02:17:03;3.90;;;2.60;;
47365;SDS011;33105;47.964;7.982;2023-07-02T02:20:05;9.05;;;3.65;;
47365;SDS011;33105;47.964;7.982;2023-07-02T02:23:07;7.43;;;3.85;;
47365;SDS011;33105;47.964;7.982;2023-07-02T02:26:08;9.23;;;3.42;;
47365;SDS011;33105;47.964;7.982;2023-07-02T02:29:10;5.10;;;3.78;;
47365;SDS011;33105;47.964;7.982;2023-07-02T02:32:11;6.28;;;3.95;;
47365;SDS011;33105;47.964;7.982;2023-07-02T02:35:14;6.80;;;4.00;;
47365;SDS011;33105;47.964;7.982;2023-07-02T02:38:16;6.40;;;4.22;;
47365;SDS011;33105;47.964;7.982;2023-07-02T02:41:17;8.77;;;4.07;;
47365;SDS011;33105;47.964;7.982;2023-07-02T02:44:24;6.13;;;4.05;;
47365;SDS011;33105;47.964;7.982;2023-07-02T02:47:25;7.05;;;4.30;;
47365;SDS011;33105;47.964;7.982;2023-07-02T02:50:27;7.40;;;4.00;;
47365;SDS011;33105;47.964;7.982;2023-07-02T02:53:28;5.95;;;4.10;;
47365;SDS011;33105;47.964;7.982;2023-07-02T02:56:29;9.20;;;4.35;;
47365;SDS011;33105;47.964;7.982;2023-07-02T02:59:30;5.75;;;4.22;;
47365;SDS011;33105;47.964;7.982;2023-07-02T03:02:32;8.75;;;4.22;;
47365;SDS011;33105;47.964;7.982;2023-07-02T03:05:33;10.30;;;4.38;;
47365;SDS011;33105;47.964;7.982;2023-07-02T03:08:35;6.32;;;4.15;;
47365;SDS011;33105;47.964;7.982;2023-07-02T03:11:36;7.80;;;4.65;;
47365;SDS011;33105;47.964;7.982;2023-07-02T03:14:37;10.70;;;4.72;;
47365;SDS011;33105;47.964;7.982;2023-07-02T03:17:39;19.35;;;4.80;;
47365;SDS011;33105;47.964;7.982;2023-07-02T03:20:40;11.63;;;4.43;;
47365;SDS011;33105;47.964;7.982;2023-07-02T03:23:41;10.75;;;4.40;;
47365;SDS011;33105;47.964;7.982;2023-07-02T03:26:43;9.68;;;4.43;;
47365;SDS011;33105;47.964;7.982;2023-07-02T03:29:44;6.97;;;4.60;;
47365;SDS011;33105;47.964;7.982;2023-07-02T03:32:46;11.25;;;4.55;;
47365;SDS011;33105;47.964;7.982;2023-07-02T03:35:47;17.80;;;5.60;;
47365;SDS011;33105;47.964;7.982;2023-07-02T03:38:49;8.93;;;4.63;;
47365;SDS011;33105;47.964;7.982;2023-07-02T03:41:50;8.95;;;4.80;;
47365;SDS011;33105;47.964;7.982;2023-07-02T03:44:51;16.85;;;5.78;;
47365;SDS011;33105;47.964;7.982;2023-07-02T03:47:53;10.77;;;5.38;;
47365;SDS011;33105;47.964;7.982;2023-07-02T03:50:54;10.30;;;5.38;;
47365;SDS011;33105;47.964;7.982;2023-07-02T03:53:57;14.77;;;6.00;;
47365;SDS011;33105;47.964;7.982;2023-07-02T03:56:59;14.02;;;5.95;;
47365;SDS011;33105;47.964;7.982;2023-07-02T04:00:00;14.35;;;7.07;;
47365;SDS011;33105;47.964;7.982;2023-07-02T04:03:01;14.90;;;7.15;;
47365;SDS011;33105;47.964;7.982;2023-07-02T04:06:03;13.45;;;7.07;;
47365;SDS011;33105;47.964;7.982;2023-07-02T04:09:06;13.48;;;6.45;;
47365;SDS011;33105;47.964;7.982;2023-07-02T04:12:08;15.10;;;8.80;;
47365;SDS011;33105;47.964;7.982;2023-07-02T04:15:09;19.27;;;10.38;;
47365;SDS011;33105;47.964;7.982;2023-07-02T04:18:10;27.80;;;11.38;;
47365;SDS011;33105;47.964;7.982;2023-07-02T04:21:12;22.45;;;12.35;;
47365;SDS011;33105;47.964;7.982;2023-07-02T04:24:13;22.92;;;13.30;;
47365;SDS011;33105;47.964;7.982;2023-07-02T04:27:15;23.00;;;14.82;;
47365;SDS011;33105;47.964;7.982;2023-07-02T04:30:20;29.63;;;15.05;;
47365;SDS011;33105;47.964;7.982;2023-07-02T04:33:21;28.50;;;16.30;;
47365;SDS011;33105;47.964;7.982;2023-07-02T04:36:22;31.02;;;15.38;;
47365;SDS011;33105;47.964;7.982;2023-07-02T04:39:23;23.13;;;15.45;;
47365;SDS011;33105;47.964;7.982;2023-07-02T04:42:24;25.42;;;15.32;;
47365;SDS011;33105;47.964;7.982;2023-07-02T04:45:28;25.88;;;15.15;;
47365;SDS011;33105;47.964;7.982;2023-07-02T04:48:37;26.63;;;16.08;;
47365;SDS011;33105;47.964;7.982;2023-07-02T04:51:38;30.40;;;16.98;;
47365;SDS011;33105;47.964;7.982;2023-07-02T04:54:39;34.25;;;19.20;;
47365;SDS011;33105;47.964;7.982;2023-07-02T04:57:40;28.65;;;18.65;;
47365;SDS011;33105;47.964;7.982;2023-07-02T05:00:42;37.80;;;20.08;;
47365;SDS011;33105;47.964;7.982;2023-07-02T05:03:43;35.80;;;20.80;;
47365;SDS011;33105;47.964;7.982;2023-07-02T05:06:45;34.80;;;19.92;;
47365;SDS011;33105;47.964;7.982;2023-07-02T05:09:46;34.67;;;21.65;;
47365;SDS011;33105;47.964;7.982;2023-07-02T05:12:49;38.33;;;20.85;;
47365;SDS011;33105;47.964;7.982;2023-07-02T05:15:50;36.50;;;19.98;;
47365;SDS011;33105;47.964;7.982;2023-07-02T05:18:51;36.25;;;20.60;;
47365;SDS011;33105;47.964;7.982;2023-07-02T05:21:53;39.75;;;21.30;;
47365;SDS011;33105;47.964;7.982;2023-07-02T05:24:54;37.97;;;20.52;;
47365;SDS011;33105;47.964;7.982;2023-07-02T05:27:55;37.45;;;20.83;;
47365;SDS011;33105;47.964;7.982;2023-07-02T05:30:56;33.42;;;20.00;;
47365;SDS011;33105;47.964;7.982;2023-07-02T05:33:58;37.72;;;20.45;;
47365;SDS011;33105;47.964;7.982;2023-07-02T05:36:59;33.70;;;20.35;;
47365;SDS011;33105;47.964;7.982;2023-07-02T05:40:01;39.38;;;21.17;;
47365;SDS011;33105;47.964;7.982;2023-07-02T05:43:02;35.83;;;21.33;;
47365;SDS011;33105;47.964;7.982;2023-07-02T05:46:03;38.78;;;21.48;;
47365;SDS011;33105;47.964;7.982;2023-07-02T05:49:05;39.67;;;21.17;;
47365;SDS011;33105;47.964;7.982;2023-07-02T05:52:06;37.28;;;20.05;;
47365;SDS011;33105;47.964;7.982;2023-07-02T05:55:08;37.83;;;20.55;;
47365;SDS011;33105;47.964;7.982;2023-07-02T05:58:12;36.28;;;21.83;;
47365;SDS011;33105;47.964;7.982;2023-07-02T06:01:13;34.45;;;19.98;;
47365;SDS011;33105;47.964;7.982;2023-07-02T06:04:18;42.92;;;21.92;;
47365;SDS011;33105;47.964;7.982;2023-07-02T06:07:19;40.22;;;20.52;;
47365;SDS011;33105;47.964;7.982;2023-07-02T06:10:20;34.78;;;20.10;;
47365;SDS011;33105;47.964;7.982;2023-07-02T06:13:22;37.65;;;20.52;;
47365;SDS011;33105;47.964;7.982;2023-07-02T06:16:23;41.95;;;21.98;;
47365;SDS011;33105;47.964;7.982;2023-07-02T06:19:25;39.00;;;21.70;;
47365;SDS011;33105;47.964;7.982;2023-07-02T06:22:27;41.70;;;21.98;;
47365;SDS011;33105;47.964;7.982;2023-07-02T06:25:28;36.97;;;20.67;;
47365;SDS011;33105;47.964;7.982;2023-07-02T06:28:29;40.20;;;20.95;;
47365;SDS011;33105;47.964;7.982;2023-07-02T06:31:31;39.15;;;20.73;;
47365;SDS011;33105;47.964;7.982;2023-07-02T06:34:32;40.47;;;22.10;;
47365;SDS011;33105;47.964;7.982;2023-07-02T06:37:34;37.78;;;22.00;;
47365;SDS011;33105;47.964;7.982;2023-07-02T06:40:35;41.22;;;21.70;;
47365;SDS011;33105;47.964;7.982;2023-07-02T06:43:36;43.30;;;22.10;;
47365;SDS011;33105;47.964;7.982;2023-07-02T06:46:38;48.47;;;23.80;;
47365;SDS011;33105;47.964;7.982;2023-07-02T06:49:39;53.20;;;23.20;;
47365;SDS011;33105;47.964;7.982;2023-07-02T06:52:40;45.83;;;24.33;;
47365;SDS011;33105;47.964;7.982;2023-07-02T06:55:42;47.90;;;23.40;;
47365;SDS011;33105;47.964;7.982;2023-07-02T06:58:43;38.10;;;23.50;;
47365;SDS011;33105;47.964;7.982;2023-07-02T07:01:44;41.72;;;24.30;;
47365;SDS011;33105;47.964;7.982;2023-07-02T07:04:45;39.08;;;23.33;;
47365;SDS011;33105;47.964;7.982;2023-07-02T07:07:47;48.95;;;24.40;;
47365;SDS011;33105;47.964;7.982;2023-07-02T07:10:49;44.58;;;23.27;;
47365;SDS011;33105;47.964;7.982;2023-07-02T07:13:50;43.72;;;24.92;;
47365;SDS011;33105;47.964;7.982;2023-07-02T07:16:56;40.40;;;22.77;;
47365;SDS011;33105;47.964;7.982;2023-07-02T07:19:57;44.55;;;23.45;;
47365;SDS011;33105;47.964;7.982;2023-07-02T07:22:58;40.15;;;23.58;;
47365;SDS011;33105;47.964;7.982;2023-07-02T07:25:59;44.47;;;23.85;;
47365;SDS011;33105;47.964;7.982;2023-07-02T07:29:01;43.63;;;23.73;;
47365;SDS011;33105;47.964;7.982;2023-07-02T07:32:02;40.88;;;24.30;;
47365;SDS011;33105;47.964;7.982;2023-07-02T07:35:03;40.92;;;24.05;;
47365;SDS011;33105;47.964;7.982;2023-07-02T07:38:05;41.42;;;24.15;;
47365;SDS011;33105;47.964;7.982;2023-07-02T07:41:07;44.63;;;24.00;;
47365;SDS011;33105;47.964;7.982;2023-07-02T07:44:09;43.90;;;25.20;;
47365;SDS011;33105;47.964;7.982;2023-07-02T07:47:11;42.65;;;26.05;;
47365;SDS011;33105;47.964;7.982;2023-07-02T07:50:13;40.50;;;24.95;;
47365;SDS011;33105;47.964;7.982;2023-07-02T07:53:14;44.42;;;26.50;;
47365;SDS011;33105;47.964;7.982;2023-07-02T07:56:16;44.38;;;24.90;;
47365;SDS011;33105;47.964;7.982;2023-07-02T07:59:17;46.72;;;25.52;;
47365;SDS011;33105;47.964;7.982;2023-07-02T08:02:19;41.55;;;25.05;;
47365;SDS011;33105;47.964;7.982;2023-07-02T08:05:21;43.55;;;26.70;;
47365;SDS011;33105;47.964;7.982;2023-07-02T08:08:23;44.88;;;26.55;;
47365;SDS011;33105;47.964;7.982;2023-07-02T08:11:24;47.15;;;26.02;;
47365;SDS011;33105;47.964;7.982;2023-07-02T08:14:26;45.15;;;26.05;;
47365;SDS011;33105;47.964;7.982;2023-07-02T08:17:27;44.03;;;24.67;;
47365;SDS011;33105;47.964;7.982;2023-07-02T08:20:29;47.70;;;26.17;;
47365;SDS011;33105;47.964;7.982;2023-07-02T08:23:30;44.42;;;25.92;;
47365;SDS011;33105;47.964;7.982;2023-07-02T08:26:32;44.30;;;25.08;;
47365;SDS011;33105;47.964;7.982;2023-07-02T08:29:33;46.05;;;25.80;;
47365;SDS011;33105;47.964;7.982;2023-07-02T08:32:34;44.85;;;25.63;;
47365;SDS011;33105;47.964;7.982;2023-07-02T08:35:35;39.47;;;22.88;;
47365;SDS011;33105;47.964;7.982;2023-07-02T08:38:37;43.05;;;24.25;;
47365;SDS011;33105;47.964;7.982;2023-07-02T08:41:47;44.58;;;25.00;;
47365;SDS011;33105;47.964;7.982;2023-07-02T08:44:53;42.55;;;23.83;;
47365;SDS011;33105;47.964;7.982;2023-07-02T08:47:54;49.60;;;24.20;;
47365;SDS011;33105;47.964;7.982;2023-07-02T08:50:57;48.63;;;24.48;;
47365;SDS011;33105;47.964;7.982;2023-07-02T08:53:58;42.25;;;23.70;;
47365;SDS011;33105;47.964;7.982;2023-07-02T08:56:59;37.60;;;22.25;;
47365;SDS011;33105;47.964;7.982;2023-07-02T09:00:09;40.03;;;22.65;;
47365;SDS011;33105;47.964;7.982;2023-07-02T09:03:12;39.08;;;23.25;;
47365;SDS011;33105;47.964;7.982;2023-07-02T09:06:16;40.10;;;23.33;;
47365;SDS011;33105;47.964;7.982;2023-07-02T09:09:18;38.55;;;23.65;;
47365;SDS011;33105;47.964;7.982;2023-07-02T09:12:23;38.78;;;21.95;;
47365;SDS011;33105;47.964;7.982;2023-07-02T09:15:26;41.72;;;22.33;;
47365;SDS011;33105;47.964;7.982;2023-07-02T09:18:27;42.08;;;21.83;;
47365;SDS011;33105;47.964;7.982;2023-07-02T09:21:38;41.10;;;21.52;;
47365;SDS011;33105;47.964;7.982;2023-07-02T09:24:53;37.22;;;21.05;;
47365;SDS011;33105;47.964;7.982;2023-07-02T09:27:55;36.13;;;20.67;;
47365;SDS011;33105;47.964;7.982;2023-07-02T09:30:56;29.92;;;19.90;;
47365;SDS011;33105;47.964;7.982;2023-07-02T09:34:02;35.67;;;19.77;;
47365;SDS011;33105;47.964;7.982;2023-07-02T09:37:04;33.85;;;19.50;;
47365;SDS011;33105;47.964;7.982;2023-07-02T09:40:06;33.42;;;18.42;;
47365;SDS011;33105;47.964;7.982;2023-07-02T09:43:09;47.20;;;19.58;;
47365;SDS011;33105;47.964;7.982;2023-07-02T09:46:11;25.20;;;17.17;;
47365;SDS011;33105;47.964;7.982;2023-07-02T09:49:14;31.33;;;17.90;;
47365;SDS011;33105;47.964;7.982;2023-07-02T09:52:17;27.65;;;17.52;;
47365;SDS011;33105;47.964;7.982;2023-07-02T09:55:21;31.83;;;19.38;;
47365;SDS011;33105;47.964;7.982;2023-07-02T09:58:22;30.35;;;18.75;;
47365;SDS011;33105;47.964;7.982;2023-07-02T10:01:24;39.45;;;19.95;;
47365;SDS011;33105;47.964;7.982;2023-07-02T10:04:25;30.17;;;17.02;;
47365;SDS011;33105;47.964;7.982;2023-07-02T10:07:27;33.78;;;17.90;;
47365;SDS011;33105;47.964;7.982;2023-07-02T10:10:30;26.55;;;17.17;;
47365;SDS011;33105;47.964;7.982;2023-07-02T10:13:32;34.22;;;18.80;;
47365;SDS011;33105;47.964;7.982;2023-07-02T10:16:34;30.88;;;17.45;;
47365;SDS011;33105;47.964;7.982;2023-07-02T10:19:35;28.73;;;17.92;;
47365;SDS011;33105;47.964;7.982;2023-07-02T10:22:46;30.85;;;17.23;;
47365;SDS011;33105;47.964;7.982;2023-07-02T10:25:55;27.73;;;17.00;;
47365;SDS011;33105;47.964;7.982;2023-07-02T10:28:57;28.05;;;16.85;;
47365;SDS011;33105;47.964;7.982;2023-07-02T10:32:01;31.65;;;17.40;;
47365;SDS011;33105;47.964;7.982;2023-07-02T10:35:16;28.98;;;17.05;;
47365;SDS011;33105;47.964;7.982;2023-07-02T10:38:19;25.80;;;17.05;;
47365;SDS011;33105;47.964;7.982;2023-07-02T10:41:26;26.92;;;16.65;;
47365;SDS011;33105;47.964;7.982;2023-07-02T10:44:29;31.50;;;17.63;;
47365;SDS011;33105;47.964;7.982;2023-07-02T10:47:30;29.35;;;16.90;;
47365;SDS011;33105;47.964;7.982;2023-07-02T10:50:31;28.33;;;16.27;;
47365;SDS011;33105;47.964;7.982;2023-07-02T10:53:33;26.55;;;16.13;;
47365;SDS011;33105;47.964;7.982;2023-07-02T10:56:34;25.52;;;16.20;;
47365;SDS011;33105;47.964;7.982;2023-07-02T10:59:36;26.50;;;16.42;;
47365;SDS011;33105;47.964;7.982;2023-07-02T11:02:37;25.52;;;15.90;;
47365;SDS011;33105;47.964;7.982;2023-07-02T11:05:39;24.23;;;16.33;;
47365;SDS011;33105;47.964;7.982;2023-07-02T11:08:40;25.73;;;15.40;;
47365;SDS011;33105;47.964;7.982;2023-07-02T11:11:49;23.65;;;14.98;;
47365;SDS011;33105;47.964;7.982;2023-07-02T11:15:10;26.30;;;15.65;;
47365;SDS011;33105;47.964;7.982;2023-07-02T11:18:13;23.63;;;14.60;;
47365;SDS011;33105;47.964;7.982;2023-07-02T11:21:16;22.65;;;14.80;;
47365;SDS011;33105;47.964;7.982;2023-07-02T11:24:26;20.80;;;13.85;;
47365;SDS011;33105;47.964;7.982;2023-07-02T11:27:29;22.67;;;13.80;;
47365;SDS011;33105;47.964;7.982;2023-07-02T11:30:30;26.25;;;13.82;;
47365;SDS011;33105;47.964;7.982;2023-07-02T11:36:37;25.27;;;13.68;;
47365;SDS011;33105;47.964;7.982;2023-07-02T11:39:38;24.02;;;14.18;;
47365;SDS011;33105;47.964;7.982;2023-07-02T11:42:40;23.88;;;14.07;;
47365;SDS011;33105;47.964;7.982;2023-07-02T11:45:42;25.08;;;14.23;;
47365;SDS011;33105;47.964;7.982;2023-07-02T11:48:44;23.95;;;14.52;;
47365;SDS011;33105;47.964;7.982;2023-07-02T11:51:46;23.40;;;15.00;;
47365;SDS011;33105;47.964;7.982;2023-07-02T11:54:49;26.90;;;15.02;;
47365;SDS011;33105;47.964;7.982;2023-07-02T11:57:51;28.15;;;14.43;;
47365;SDS011;33105;47.964;7.982;2023-07-02T12:00:52;24.63;;;13.50;;
47365;SDS011;33105;47.964;7.982;2023-07-02T12:03:53;24.02;;;15.23;;
47365;SDS011;33105;47.964;7.982;2023-07-02T12:06:55;25.13;;;14.85;;
47365;SDS011;33105;47.964;7.982;2023-07-02T12:09:56;28.08;;;14.95;;
47365;SDS011;33105;47.964;7.982;2023-07-02T12:12:57;25.13;;;15.23;;
47365;SDS011;33105;47.964;7.982;2023-07-02T12:15:59;28.23;;;14.93;;
47365;SDS011;33105;47.964;7.982;2023-07-02T12:19:01;24.83;;;15.35;;
47365;SDS011;33105;47.964;7.982;2023-07-02T12:22:02;23.15;;;14.43;;
47365;SDS011;33105;47.964;7.982;2023-07-02T12:25:04;23.10;;;14.43;;
47365;SDS011;33105;47.964;7.982;2023-07-02T12:28:06;22.33;;;14.85;;
47365;SDS011;33105;47.964;7.982;2023-07-02T12:31:07;20.85;;;14.60;;
47365;SDS011;33105;47.964;7.982;2023-07-02T12:34:09;25.67;;;15.95;;
47365;SDS011;33105;47.964;7.982;2023-07-02T12:37:10;27.75;;;15.10;;
47365;SDS011;33105;47.964;7.982;2023-07-02T12:40:12;24.95;;;14.40;;
47365;SDS011;33105;47.964;7.982;2023-07-02T12:43:14;21.00;;;13.35;;
47365;SDS011;33105;47.964;7.982;2023-07-02T12:46:15;22.30;;;13.68;;
47365;SDS011;33105;47.964;7.982;2023-07-02T12:49:16;24.70;;;13.90;;
47365;SDS011;33105;47.964;7.982;2023-07-02T12:52:18;20.00;;;13.82;;
47365;SDS011;33105;47.964;7.982;2023-07-02T12:55:19;22.13;;;13.93;;
47365;SDS011;33105;47.964;7.982;2023-07-02T12:58:21;22.63;;;13.75;;
47365;SDS011;33105;47.964;7.982;2023-07-02T13:01:22;18.42;;;12.75;;
47365;SDS011;33105;47.964;7.982;2023-07-02T13:04:25;20.48;;;13.18;;
47365;SDS011;33105;47.964;7.982;2023-07-02T13:07:27;17.30;;;11.90;;
47365;SDS011;33105;47.964;7.982;2023-07-02T13:10:31;22.50;;;13.32;;
47365;SDS011;33105;47.964;7.982;2023-07-02T13:13:34;17.23;;;12.20;;
47365;SDS011;33105;47.964;7.982;2023-07-02T13:16:39;18.05;;;12.10;;
47365;SDS011;33105;47.964;7.982;2023-07-02T13:19:40;22.08;;;13.23;;
47365;SDS011;33105;47.964;7.982;2023-07-02T13:22:42;23.20;;;14.55;;
47365;SDS011;33105;47.964;7.982;2023-07-02T13:25:43;22.27;;;14.85;;
47365;SDS011;33105;47.964;7.982;2023-07-02T13:28:45;21.75;;;14.70;;
47365;SDS011;33105;47.964;7.982;2023-07-02T13:31:48;27.42;;;17.10;;
47365;SDS011;33105;47.964;7.982;2023-07-02T13:34:50;28.25;;;17.60;;
47365;SDS011;33105;47.964;7.982;2023-07-02T13:37:51;28.58;;;17.88;;
47365;SDS011;33105;47.964;7.982;2023-07-02T13:40:53;31.65;;;18.80;;
47365;SDS011;33105;47.964;7.982;2023-07-02T13:43:54;27.92;;;18.83;;
47365;SDS011;33105;47.964;7.982;2023-07-02T13:46:56;31.33;;;18.83;;
47365;SDS011;33105;47.964;7.982;2023-07-02T13:49:57;29.35;;;20.73;;
47365;SDS011;33105;47.964;7.982;2023-07-02T13:52:58;31.98;;;19.63;;
47365;SDS011;33105;47.964;7.982;2023-07-02T13:56:00;33.88;;;20.83;;
47365;SDS011;33105;47.964;7.982;2023-07-02T13:59:02;31.52;;;21.58;;
47365;SDS011;33105;47.964;7.982;2023-07-02T14:02:04;32.83;;;21.67;;
47365;SDS011;33105;47.964;7.982;2023-07-02T14:05:06;35.78;;;21.40;;
47365;SDS011;33105;47.964;7.982;2023-07-02T14:08:08;34.20;;;22.13;;
47365;SDS011;33105;47.964;7.982;2023-07-02T14:11:10;31.00;;;20.50;;
47365;SDS011;33105;47.964;7.982;2023-07-02T14:14:11;29.83;;;21.02;;
47365;SDS011;33105;47.964;7.982;2023-07-02T14:17:13;34.00;;;21.15;;
47365;SDS011;33105;47.964;7.982;2023-07-02T14:20:14;32.28;;;19.40;;
47365;SDS011;33105;47.964;7.982;2023-07-02T14:23:15;26.67;;;17.65;;
47365;SDS011;33105;47.964;7.982;2023-07-02T14:26:16;29.65;;;19.10;;
47365;SDS011;33105;47.964;7.982;2023-07-02T14:29:18;30.42;;;18.35;;
47365;SDS011;33105;47.964;7.982;2023-07-02T14:32:19;30.08;;;18.77;;
47365;SDS011;33105;47.964;7.982;2023-07-02T14:35:20;29.70;;;17.17;;
47365;SDS011;33105;47.964;7.982;2023-07-02T14:38:26;27.10;;;16.98;;
47365;SDS011;33105;47.964;7.982;2023-07-02T14:41:27;27.50;;;17.42;;
47365;SDS011;33105;47.964;7.982;2023-07-02T14:44:31;24.75;;;16.55;;
47365;SDS011;33105;47.964;7.982;2023-07-02T14:47:33;24.00;;;16.10;;
47365;SDS011;33105;47.964;7.982;2023-07-02T14:50:34;27.15;;;16.35;;
47365;SDS011;33105;47.964;7.982;2023-07-02T14:53:35;27.13;;;16.75;;
47365;SDS011;33105;47.964;7.982;2023-07-02T14:56:36;26.02;;;16.63;;
47365;SDS011;33105;47.964;7.982;2023-07-02T14:59:38;27.75;;;17.63;;
47365;SDS011;33105;47.964;7.982;2023-07-02T15:02:39;26.83;;;16.88;;
47365;SDS011;33105;47.964;7.982;2023-07-02T15:05:41;25.58;;;17.23;;
47365;SDS011;33105;47.964;7.982;2023-07-02T15:08:42;31.95;;;17.48;;
47365;SDS011;33105;47.964;7.982;2023-07-02T15:11:44;29.23;;;16.55;;
47365;SDS011;33105;47.964;7.982;2023-07-02T15:14:45;24.90;;;16.67;;
47365;SDS011;33105;47.964;7.982;2023-07-02T15:17:47;28.83;;;16.90;;
47365;SDS011;33105;47.964;7.982;2023-07-02T15:20:51;25.27;;;16.35;;
47365;SDS011;33105;47.964;7.982;2023-07-02T15:23:54;28.38;;;16.55;;
47365;SDS011;33105;47.964;7.982;2023-07-02T15:26:55;25.73;;;16.67;;
47365;SDS011;33105;47.964;7.982;2023-07-02T15:29:56;25.08;;;15.20;;
47365;SDS011;33105;47.964;7.982;2023-07-02T15:32:57;25.38;;;16.17;;
47365;SDS011;33105;47.964;7.982;2023-07-02T15:35:59;25.90;;;15.98;;
47365;SDS011;33105;47.964;7.982;2023-07-02T15:39:03;24.25;;;15.45;;
47365;SDS011;33105;47.964;7.982;2023-07-02T15:42:04;29.35;;;17.23;;
47365;SDS011;33105;47.964;7.982;2023-07-02T15:45:06;25.02;;;16.13;;
47365;SDS011;33105;47.964;7.982;2023-07-02T15:48:08;27.63;;;15.57;;
47365;SDS011;33105;47.964;7.982;2023-07-02T15:51:09;23.38;;;15.20;;
47365;SDS011;33105;47.964;7.982;2023-07-02T15:54:11;23.60;;;16.13;;
47365;SDS011;33105;47.964;7.982;2023-07-02T15:57:13;25.20;;;15.70;;
47365;SDS011;33105;47.964;7.982;2023-07-02T16:00:14;23.85;;;15.60;;
47365;SDS011;33105;47.964;7.982;2023-07-02T16:03:16;26.33;;;15.23;;
47365;SDS011;33105;47.964;7.982;2023-07-02T16:06:17;23.30;;;16.10;;
47365;SDS011;33105;47.964;7.982;2023-07-02T16:09:20;21.30;;;13.90;;
47365;SDS011;33105;47.964;7.982;2023-07-02T16:12:21;23.65;;;14.43;;
47365;SDS011;33105;47.964;7.982;2023-07-02T16:15:25;22.08;;;14.07;;
47365;SDS011;33105;47.964;7.982;2023-07-02T16:18:27;25.98;;;14.30;;
47365;SDS011;33105;47.964;7.982;2023-07-02T16:21:28;21.13;;;13.68;;
47365;SDS011;33105;47.964;7.982;2023-07-02T16:24:30;17.27;;;12.05;;
47365;SDS011;33105;47.964;7.982;2023-07-02T16:27:33;21.08;;;12.65;;
47365;SDS011;33105;47.964;7.982;2023-07-02T16:30:35;17.15;;;11.65;;
47365;SDS011;33105;47.964;7.982;2023-07-02T16:33:36;20.85;;;12.10;;
47365;SDS011;33105;47.964;7.982;2023-07-02T16:36:38;19.08;;;11.52;;
47365;SDS011;33105;47.964;7.982;2023-07-02T16:39:39;20.48;;;12.50;;
47365;SDS011;33105;47.964;7.982;2023-07-02T16:42:40;18.48;;;11.80;;
47365;SDS011;33105;47.964;7.982;2023-07-02T16:45:41;18.80;;;12.52;;
47365;SDS011;33105;47.964;7.982;2023-07-02T16:48:43;18.27;;;10.50;;
47365;SDS011;33105;47.964;7.982;2023-07-02T16:51:44;20.13;;;11.90;;
47365;SDS011;33105;47.964;7.982;2023-07-02T16:54:48;16.83;;;11.55;;
47365;SDS011;33105;47.964;7.982;2023-07-02T16:57:50;17.38;;;10.52;;
47365;SDS011;33105;47.964;7.982;2023-07-02T17:00:52;17.65;;;11.07;;
47365;SDS011;33105;47.964;7.982;2023-07-02T17:03:59;18.02;;;10.20;;
47365;SDS011;33105;47.964;7.982;2023-07-02T17:07:00;18.92;;;11.10;;
47365;SDS011;33105;47.964;7.982;2023-07-02T17:10:02;18.33;;;11.20;;
47365;SDS011;33105;47.964;7.982;2023-07-02T17:13:03;18.35;;;11.07;;
47365;SDS011;33105;47.964;7.982;2023-07-02T17:16:05;17.55;;;10.98;;
47365;SDS011;33105;47.964;7.982;2023-07-02T17:19:07;16.13;;;10.55;;
47365;SDS011;33105;47.964;7.982;2023-07-02T17:22:09;17.75;;;10.93;;
47365;SDS011;33105;47.964;7.982;2023-07-02T17:25:12;20.33;;;10.35;;
47365;SDS011;33105;47.964;7.982;2023-07-02T17:28:13;21.02;;;10.98;;
47365;SDS011;33105;47.964;7.982;2023-07-02T17:31:15;14.48;;;10.30;;
47365;SDS011;33105;47.964;7.982;2023-07-02T17:34:17;16.45;;;11.00;;
47365;SDS011;33105;47.964;7.982;2023-07-02T17:37:22;18.50;;;11.95;;
47365;SDS011;33105;47.964;7.982;2023-07-02T17:40:24;21.95;;;11.63;;
47365;SDS011;33105;47.964;7.982;2023-07-02T17:43:25;21.60;;;12.23;;
47365;SDS011;33105;47.964;7.982;2023-07-02T17:46:26;17.45;;;11.35;;
47365;SDS011;33105;47.964;7.982;2023-07-02T17:49:27;20.00;;;11.18;;
47365;SDS011;33105;47.964;7.982;2023-07-02T17:52:29;15.48;;;10.50;;